sensor_id;sensor_type;location;lat;lon;timestamp;pressure;altitude;pressure_sealevel;temperature;humidity
10720;BME280;5411;58.386;15.560;2023-04-03T14:10:10;102334.84;;;6.07;49.01
10720;BME280;5411;58.386;15.560;2023-04-03T14:12:39;102338.66;;;6.14;48.95
10720;BME280;5411;58.386;15.560;2023-04-03T14:15:16;102335.03;;;6.15;47.38
10720;BME280;5411;58.386;15.560;2023-04-03T14:17:45;102331.66;;;6.13;49.45
10720;BME280;5411;58.386;15.560;2023-04-03T14:20:19;102334.69;;;6.20;50.14
10720;BME280;5411;58.386;15.560;2023-04-03T14:22:48;102330.09;;;6.22;49.28
10720;BME280;5411;58.386;15.560;2023-04-03T14:25:20;102322.00;;;6.23;50.04
10720;BME280;5411;58.386;15.560;2023-04-03T14:27:52;102323.56;;;6.26;50.47
10720;BME280;5411;58.386;15.560;2023-04-03T14:30:33;102323.81;;;6.23;49.43
10720;BME280;5411;58.386;15.560;2023-04-03T14:33:11;102321.38;;;6.20;50.51
10720;BME280;5411;58.386;15.560;2023-04-03T14:35:40;102320.78;;;6.16;49.18
10720;BME280;5411;58.386;15.560;2023-04-03T14:38:26;102312.50;;;6.10;48.96
10720;BME280;5411;58.386;15.560;2023-04-03T14:41:31;102312.72;;;6.06;47.88
10720;BME280;5411;58.386;15.560;2023-04-03T14:44:00;102304.31;;;5.90;47.50
10720;BME280;5411;58.386;15.560;2023-04-03T14:46:30;102301.78;;;5.89;48.58
10720;BME280;5411;58.386;15.560;2023-04-03T14:49:21;102292.72;;;5.91;47.77
10720;BME280;5411;58.386;15.560;2023-04-03T14:51:51;102285.47;;;5.93;48.06
10720;BME280;5411;58.386;15.560;2023-04-03T14:54:22;102277.63;;;5.92;48.88
10720;BME280;5411;58.386;15.560;2023-04-03T14:56:58;102277.16;;;5.98;48.57
10720;BME280;5411;58.386;15.560;2023-04-03T14:59:28;102273.53;;;5.99;47.87
10720;BME280;5411;58.386;15.560;2023-04-03T15:01:57;102276.75;;;6.02;47.88
10720;BME280;5411;58.386;15.560;2023-04-03T15:04:26;102262.38;;;6.05;47.29
10720;BME280;5411;58.386;15.560;2023-04-03T15:06:54;102266.13;;;6.02;46.73
10720;BME280;5411;58.386;15.560;2023-04-03T15:09:25;102252.34;;;6.08;47.37
10720;BME280;5411;58.386;15.560;2023-04-03T15:11:57;102257.66;;;6.08;46.54
10720;BME280;5411;58.386;15.560;2023-04-03T15:14:25;102253.91;;;6.11;46.51
10720;BME280;5411;58.386;15.560;2023-04-03T15:17:12;102256.28;;;6.14;45.07
10720;BME280;5411;58.386;15.560;2023-04-03T15:19:42;102257.91;;;6.05;44.74
10720;BME280;5411;58.386;15.560;2023-04-03T15:22:13;102249.09;;;6.05;44.61
10720;BME280;5411;58.386;15.560;2023-04-03T15:24:43;102248.59;;;6.00;44.65
10720;BME280;5411;58.386;15.560;2023-04-03T15:27:13;102245.09;;;5.99;45.24
10720;BME280;5411;58.386;15.560;2023-04-03T15:29:44;102250.31;;;6.01;43.77
10720;BME280;5411;58.386;15.560;2023-04-03T15:32:13;102236.81;;;5.93;43.27
10720;BME280;5411;58.386;15.560;2023-04-03T15:34:41;102231.63;;;5.91;43.69
10720;BME280;5411;58.386;15.560;2023-04-03T15:37:11;102238.63;;;5.92;44.04
10720;BME280;5411;58.386;15.560;2023-04-03T15:39:39;102239.56;;;6.02;43.55
10720;BME280;5411;58.386;15.560;2023-04-03T15:42:08;102240.25;;;6.36;43.03
10720;BME280;5411;58.386;15.560;2023-04-03T15:44:38;102231.59;;;7.56;40.83
10720;BME280;5411;58.386;15.560;2023-04-03T15:47:07;102236.03;;;8.90;39.57
10720;BME280;5411;58.386;15.560;2023-04-03T15:49:35;102226.06;;;10.10;36.75
10720;BME280;5411;58.386;15.560;2023-04-03T15:52:04;102235.78;;;11.06;34.66
10720;BME280;5411;58.386;15.560;2023-04-03T15:54:34;102228.41;;;11.93;34.16
10720;BME280;5411;58.386;15.560;2023-04-03T15:57:02;102224.06;;;12.65;32.38
10720;BME280;5411;58.386;15.560;2023-04-03T15:59:31;102217.25;;;13.01;31.08
10720;BME280;5411;58.386;15.560;2023-04-03T16:02:01;102214.25;;;13.43;32.03
10720;BME280;5411;58.386;15.560;2023-04-03T16:04:34;102213.19;;;13.83;29.85
10720;BME280;5411;58.386;15.560;2023-04-03T16:07:03;102211.84;;;14.02;31.14
10720;BME280;5411;58.386;15.560;2023-04-03T16:09:34;102213.81;;;14.31;29.29
10720;BME280;5411;58.386;15.560;2023-04-03T16:12:04;102210.53;;;14.44;29.19
10720;BME280;5411;58.386;15.560;2023-04-03T16:14:32;102214.56;;;14.63;29.18
10720;BME280;5411;58.386;15.560;2023-04-03T16:17:02;102214.38;;;14.64;28.25
10720;BME280;5411;58.386;15.560;2023-04-03T16:19:31;102209.16;;;14.48;28.91
10720;BME280;5411;58.386;15.560;2023-04-03T16:21:59;102215.00;;;14.51;28.75
10720;BME280;5411;58.386;15.560;2023-04-03T16:24:28;102211.94;;;14.54;28.71
10720;BME280;5411;58.386;15.560;2023-04-03T16:26:59;102203.16;;;14.38;28.15
10720;BME280;5411;58.386;15.560;2023-04-03T16:29:30;102204.22;;;14.28;28.51
10720;BME280;5411;58.386;15.560;2023-04-03T16:31:59;102198.88;;;14.06;28.49
10720;BME280;5411;58.386;15.560;2023-04-03T16:34:30;102191.16;;;13.80;28.53
10720;BME280;5411;58.386;15.560;2023-04-03T16:36:59;102196.34;;;13.59;28.02
10720;BME280;5411;58.386;15.560;2023-04-03T16:39:28;102193.88;;;13.18;28.63
10720;BME280;5411;58.386;15.560;2023-04-03T16:41:57;102196.25;;;12.97;29.69
10720;BME280;5411;58.386;15.560;2023-04-03T16:44:25;102189.75;;;12.83;29.75
10720;BME280;5411;58.386;15.560;2023-04-03T16:46:54;102193.28;;;12.83;29.47
10720;BME280;5411;58.386;15.560;2023-04-03T16:49:25;102193.97;;;12.77;29.62
10720;BME280;5411;58.386;15.560;2023-04-03T16:51:58;102182.56;;;12.67;29.44
10720;BME280;5411;58.386;15.560;2023-04-03T16:54:27;102186.47;;;12.65;30.28
10720;BME280;5411;58.386;15.560;2023-04-03T16:56:56;102185.31;;;12.43;30.41
10720;BME280;5411;58.386;15.560;2023-04-03T16:59:24;102187.66;;;12.13;30.64
10720;BME280;5411;58.386;15.560;2023-04-03T17:01:53;102187.41;;;11.08;31.69
10720;BME280;5411;58.386;15.560;2023-04-03T17:04:22;102177.28;;;10.16;33.05
10720;BME280;5411;58.386;15.560;2023-04-03T17:06:53;102184.38;;;9.37;34.05
10720;BME280;5411;58.386;15.560;2023-04-03T17:09:23;102191.13;;;8.67;35.13
10720;BME280;5411;58.386;15.560;2023-04-03T17:11:52;102194.44;;;8.03;36.76
10720;BME280;5411;58.386;15.560;2023-04-03T17:14:20;102183.91;;;7.53;36.59
10720;BME280;5411;58.386;15.560;2023-04-03T17:16:49;102193.75;;;7.12;37.56
10720;BME280;5411;58.386;15.560;2023-04-03T17:19:18;102187.41;;;6.64;38.98
10720;BME280;5411;58.386;15.560;2023-04-03T17:21:48;102190.06;;;6.22;39.56
10720;BME280;5411;58.386;15.560;2023-04-03T17:24:17;102178.84;;;5.87;40.43
10720;BME280;5411;58.386;15.560;2023-04-03T17:26:47;102176.06;;;5.56;41.71
10720;BME280;5411;58.386;15.560;2023-04-03T17:29:16;102184.34;;;5.31;41.95
10720;BME280;5411;58.386;15.560;2023-04-03T17:31:47;102189.19;;;5.04;42.35
10720;BME280;5411;58.386;15.560;2023-04-03T17:34:16;102193.63;;;4.81;43.07
10720;BME280;5411;58.386;15.560;2023-04-03T17:36:45;102190.13;;;4.58;43.31
10720;BME280;5411;58.386;15.560;2023-04-03T17:39:17;102179.50;;;4.36;44.11
10720;BME280;5411;58.386;15.560;2023-04-03T17:41:46;102179.00;;;4.19;44.36
10720;BME280;5411;58.386;15.560;2023-04-03T17:44:30;102176.03;;;4.00;45.08
10720;BME280;5411;58.386;15.560;2023-04-03T17:47:13;102174.16;;;3.78;45.78
10720;BME280;5411;58.386;15.560;2023-04-03T17:49:44;102176.84;;;3.66;46.39
10720;BME280;5411;58.386;15.560;2023-04-03T17:52:13;102175.84;;;3.55;47.23
10720;BME280;5411;58.386;15.560;2023-04-03T17:54:44;102173.38;;;3.41;48.55
10720;BME280;5411;58.386;15.560;2023-04-03T17:57:14;102169.41;;;3.23;48.13
10720;BME280;5411;58.386;15.560;2023-04-03T17:59:45;102173.88;;;3.10;47.32
10720;BME280;5411;58.386;15.560;2023-04-03T18:02:13;102178.97;;;3.00;48.34
10720;BME280;5411;58.386;15.560;2023-04-03T18:04:42;102177.72;;;2.93;48.69
10720;BME280;5411;58.386;15.560;2023-04-03T18:07:10;102176.56;;;2.84;47.29
10720;BME280;5411;58.386;15.560;2023-04-03T18:09:39;102174.38;;;2.78;47.97
10720;BME280;5411;58.386;15.560;2023-04-03T18:12:11;102185.34;;;2.72;47.82
10720;BME280;5411;58.386;15.560;2023-04-03T18:15:08;102175.44;;;2.63;47.96
10720;BME280;5411;58.386;15.560;2023-04-03T18:17:37;102178.59;;;2.56;48.72
10720;BME280;5411;58.386;15.560;2023-04-03T18:20:06;102172.06;;;2.48;49.02
10720;BME280;5411;58.386;15.560;2023-04-03T18:22:36;102183.69;;;2.46;49.12
10720;BME280;5411;58.386;15.560;2023-04-03T18:25:05;102177.84;;;2.41;49.16
10720;BME280;5411;58.386;15.560;2023-04-03T18:27:33;102171.41;;;2.32;49.80
10720;BME280;5411;58.386;15.560;2023-04-03T18:30:09;102174.69;;;2.23;50.41
10720;BME280;5411;58.386;15.560;2023-04-03T18:32:40;102160.44;;;2.13;49.83
10720;BME280;5411;58.386;15.560;2023-04-03T18:35:09;102171.00;;;2.13;50.89
10720;BME280;5411;58.386;15.560;2023-04-03T18:37:37;102172.44;;;2.04;51.22
10720;BME280;5411;58.386;15.560;2023-04-03T18:40:07;102157.31;;;1.94;51.15
10720;BME280;5411;58.386;15.560;2023-04-03T18:42:35;102167.22;;;1.90;51.13
10720;BME280;5411;58.386;15.560;2023-04-03T18:45:05;102161.63;;;1.82;51.33
10720;BME280;5411;58.386;15.560;2023-04-03T18:47:35;102157.69;;;1.75;52.55
10720;BME280;5411;58.386;15.560;2023-04-03T18:50:04;102167.72;;;1.70;53.53
10720;BME280;5411;58.386;15.560;2023-04-03T18:52:33;102150.81;;;1.60;52.60
10720;BME280;5411;58.386;15.560;2023-04-03T18:55:01;102164.19;;;1.57;53.15
10720;BME280;5411;58.386;15.560;2023-04-03T18:57:29;102155.16;;;1.47;53.52
10720;BME280;5411;58.386;15.560;2023-04-03T18:59:58;102167.63;;;1.45;53.69
10720;BME280;5411;58.386;15.560;2023-04-03T19:02:27;102168.00;;;1.38;53.41
10720;BME280;5411;58.386;15.560;2023-04-03T19:04:58;102163.03;;;1.34;54.53
10720;BME280;5411;58.386;15.560;2023-04-03T19:07:30;102158.25;;;1.26;54.28
10720;BME280;5411;58.386;15.560;2023-04-03T19:10:14;102158.53;;;1.22;54.82
10720;BME280;5411;58.386;15.560;2023-04-03T19:12:44;102151.03;;;1.16;54.50
10720;BME280;5411;58.386;15.560;2023-04-03T19:15:15;102156.78;;;1.08;55.17
10720;BME280;5411;58.386;15.560;2023-04-03T19:17:54;102151.06;;;1.01;55.81
10720;BME280;5411;58.386;15.560;2023-04-03T19:20:28;102154.72;;;0.99;55.97
10720;BME280;5411;58.386;15.560;2023-04-03T19:23:02;102152.50;;;0.93;56.18
10720;BME280;5411;58.386;15.560;2023-04-03T19:25:35;102153.63;;;0.89;56.55
10720;BME280;5411;58.386;15.560;2023-04-03T19:28:06;102149.38;;;0.86;56.56
10720;BME280;5411;58.386;15.560;2023-04-03T19:30:37;102141.97;;;0.79;55.62
10720;BME280;5411;58.386;15.560;2023-04-03T19:33:08;102145.47;;;0.79;56.40
10720;BME280;5411;58.386;15.560;2023-04-03T19:35:40;102130.03;;;0.73;57.08
10720;BME280;5411;58.386;15.560;2023-04-03T19:38:12;102136.13;;;0.74;56.33
10720;BME280;5411;58.386;15.560;2023-04-03T19:40:47;102127.66;;;0.68;57.53
10720;BME280;5411;58.386;15.560;2023-04-03T19:43:19;102127.88;;;0.65;57.78
10720;BME280;5411;58.386;15.560;2023-04-03T19:45:47;102121.28;;;0.58;57.34
10720;BME280;5411;58.386;15.560;2023-04-03T19:48:17;102113.78;;;0.52;57.82
10720;BME280;5411;58.386;15.560;2023-04-03T19:50:52;102115.00;;;0.47;57.67
10720;BME280;5411;58.386;15.560;2023-04-03T19:53:20;102108.22;;;0.43;58.18
10720;BME280;5411;58.386;15.560;2023-04-03T19:55:55;102106.06;;;0.35;59.21
10720;BME280;5411;58.386;15.560;2023-04-03T19:58:24;102114.97;;;0.32;58.82
10720;BME280;5411;58.386;15.560;2023-04-03T20:00:56;102108.22;;;0.28;59.82
10720;BME280;5411;58.386;15.560;2023-04-03T20:03:25;102116.31;;;0.25;59.69
10720;BME280;5411;58.386;15.560;2023-04-03T20:05:55;102109.72;;;0.18;59.70
10720;BME280;5411;58.386;15.560;2023-04-03T20:08:24;102111.66;;;0.15;60.26
10720;BME280;5411;58.386;15.560;2023-04-03T20:10:54;102101.34;;;0.12;60.07
10720;BME280;5411;58.386;15.560;2023-04-03T20:13:24;102104.34;;;0.06;60.93
10720;BME280;5411;58.386;15.560;2023-04-03T20:15:53;102100.94;;;0.04;60.43
10720;BME280;5411;58.386;15.560;2023-04-03T20:18:22;102098.78;;;-0.04;61.56
10720;BME280;5411;58.386;15.560;2023-04-03T20:20:55;102090.22;;;-0.08;61.58
10720;BME280;5411;58.386;15.560;2023-04-03T20:23:24;102087.78;;;-0.11;61.14
10720;BME280;5411;58.386;15.560;2023-04-03T20:25:54;102088.78;;;-0.13;61.51
10720;BME280;5411;58.386;15.560;2023-04-03T20:28:42;102089.75;;;-0.14;61.69
10720;BME280;5411;58.386;15.560;2023-04-03T20:31:16;102090.78;;;-0.17;62.36
10720;BME280;5411;58.386;15.560;2023-04-03T20:33:45;102086.47;;;-0.18;62.40
10720;BME280;5411;58.386;15.560;2023-04-03T20:36:16;102096.31;;;-0.21;61.98
10720;BME280;5411;58.386;15.560;2023-04-03T20:38:46;102091.81;;;-0.19;62.21
10720;BME280;5411;58.386;15.560;2023-04-03T20:41:15;102092.81;;;-0.22;62.25
10720;BME280;5411;58.386;15.560;2023-04-03T20:43:44;102092.81;;;-0.22;62.72
10720;BME280;5411;58.386;15.560;2023-04-03T20:46:14;102089.34;;;-0.22;62.13
10720;BME280;5411;58.386;15.560;2023-04-03T20:48:45;102082.41;;;-0.23;62.52
10720;BME280;5411;58.386;15.560;2023-04-03T20:51:17;102074.59;;;-0.25;62.41
10720;BME280;5411;58.386;15.560;2023-04-03T20:53:47;102079.28;;;-0.30;63.31
10720;BME280;5411;58.386;15.560;2023-04-03T20:56:16;102076.00;;;-0.33;63.32
10720;BME280;5411;58.386;15.560;2023-04-03T20:58:44;102076.34;;;-0.40;64.57
10720;BME280;5411;58.386;15.560;2023-04-03T21:01:15;102071.53;;;-0.47;65.08
10720;BME280;5411;58.386;15.560;2023-04-03T21:03:45;102081.97;;;-0.46;66.26
10720;BME280;5411;58.386;15.560;2023-04-03T21:20:56;102075.81;;;-0.60;67.23
10720;BME280;5411;58.386;15.560;2023-04-03T21:23:27;102074.22;;;-0.63;66.92
10720;BME280;5411;58.386;15.560;2023-04-03T21:25:56;102073.53;;;-0.66;67.12
10720;BME280;5411;58.386;15.560;2023-04-03T21:28:25;102071.94;;;-0.69;67.28
10720;BME280;5411;58.386;15.560;2023-04-03T21:30:53;102065.09;;;-0.72;67.58
10720;BME280;5411;58.386;15.560;2023-04-03T21:33:23;102065.34;;;-0.76;68.13
10720;BME280;5411;58.386;15.560;2023-04-03T21:35:51;102061.94;;;-0.78;68.31
10720;BME280;5411;58.386;15.560;2023-04-03T21:38:27;102061.22;;;-0.80;68.10
10720;BME280;5411;58.386;15.560;2023-04-03T21:41:09;102064.09;;;-0.85;68.41
10720;BME280;5411;58.386;15.560;2023-04-03T21:46:24;102051.50;;;-0.94;68.85
10720;BME280;5411;58.386;15.560;2023-04-03T21:48:55;102060.47;;;-0.98;68.33
10720;BME280;5411;58.386;15.560;2023-04-03T21:51:23;102055.47;;;-1.02;68.56
10720;BME280;5411;58.386;15.560;2023-04-03T21:53:53;102048.59;;;-1.05;69.32
10720;BME280;5411;58.386;15.560;2023-04-03T21:56:22;102055.75;;;-1.07;69.40
10720;BME280;5411;58.386;15.560;2023-04-03T21:58:51;102047.34;;;-1.14;69.97
10720;BME280;5411;58.386;15.560;2023-04-03T22:01:20;102047.44;;;-1.15;69.76
10720;BME280;5411;58.386;15.560;2023-04-03T22:03:48;102049.22;;;-1.16;70.18
10720;BME280;5411;58.386;15.560;2023-04-03T22:06:18;102043.47;;;-1.22;70.93
10720;BME280;5411;58.386;15.560;2023-04-03T22:08:46;102042.00;;;-1.28;71.52
10720;BME280;5411;58.386;15.560;2023-04-03T22:11:17;102043.09;;;-1.32;71.81
10720;BME280;5411;58.386;15.560;2023-04-03T22:13:50;102034.66;;;-1.37;71.97
10720;BME280;5411;58.386;15.560;2023-04-03T22:16:18;102033.88;;;-1.39;72.35
10720;BME280;5411;58.386;15.560;2023-04-03T22:18:50;102034.97;;;-1.43;72.66
10720;BME280;5411;58.386;15.560;2023-04-03T22:21:20;102032.44;;;-1.45;72.36
10720;BME280;5411;58.386;15.560;2023-04-03T22:23:48;102019.41;;;-1.46;72.53
10720;BME280;5411;58.386;15.560;2023-04-03T22:26:16;102015.97;;;-1.47;72.75
10720;BME280;5411;58.386;15.560;2023-04-03T22:28:45;102017.63;;;-1.46;72.93
10720;BME280;5411;58.386;15.560;2023-04-03T22:31:14;102016.88;;;-1.48;73.88
10720;BME280;5411;58.386;15.560;2023-04-03T22:33:44;102012.72;;;-1.52;73.36
10720;BME280;5411;58.386;15.560;2023-04-03T22:36:13;102016.28;;;-1.53;73.66
10720;BME280;5411;58.386;15.560;2023-04-03T22:38:43;102010.19;;;-1.53;73.46
10720;BME280;5411;58.386;15.560;2023-04-03T22:41:12;102013.72;;;-1.54;73.37
10720;BME280;5411;58.386;15.560;2023-04-03T22:43:43;102004.25;;;-1.57;73.43
10720;BME280;5411;58.386;15.560;2023-04-03T22:46:16;102006.78;;;-1.55;73.63
10720;BME280;5411;58.386;15.560;2023-04-03T22:48:45;101997.22;;;-1.56;73.70
10720;BME280;5411;58.386;15.560;2023-04-03T22:51:14;102003.31;;;-1.56;74.00
10720;BME280;5411;58.386;15.560;2023-04-03T22:53:43;101988.78;;;-1.61;74.19
10720;BME280;5411;58.386;15.560;2023-04-03T22:56:12;101999.94;;;-1.58;74.22
10720;BME280;5411;58.386;15.560;2023-04-03T22:58:41;102004.31;;;-1.58;74.31
10720;BME280;5411;58.386;15.560;2023-04-03T23:01:12;101992.97;;;-1.59;74.80
10720;BME280;5411;58.386;15.560;2023-04-03T23:03:41;101987.94;;;-1.62;74.86
10720;BME280;5411;58.386;15.560;2023-04-03T23:06:10;101983.94;;;-1.69;75.07
10720;BME280;5411;58.386;15.560;2023-04-03T23:08:39;101987.50;;;-1.70;75.83
10720;BME280;5411;58.386;15.560;2023-04-03T23:11:09;101985.78;;;-1.71;75.98
10720;BME280;5411;58.386;15.560;2023-04-03T23:13:50;101990.28;;;-1.73;75.79
10720;BME280;5411;58.386;15.560;2023-04-03T23:16:18;101987.00;;;-1.76;76.06
10720;BME280;5411;58.386;15.560;2023-04-03T23:18:47;101989.69;;;-1.78;75.67
10720;BME280;5411;58.386;15.560;2023-04-03T23:21:15;101984.69;;;-1.83;75.98
10720;BME280;5411;58.386;15.560;2023-04-03T23:23:45;101980.28;;;-1.82;76.16
10720;BME280;5411;58.386;15.560;2023-04-03T23:26:15;101988.22;;;-1.84;76.35
10720;BME280;5411;58.386;15.560;2023-04-03T23:28:53;101971.16;;;-1.91;76.87
10720;BME280;5411;58.386;15.560;2023-04-03T23:31:21;101974.53;;;-1.89;76.79
10720;BME280;5411;58.386;15.560;2023-04-03T23:33:51;101983.66;;;-1.96;78.23
10720;BME280;5411;58.386;15.560;2023-04-03T23:36:19;101973.66;;;-2.05;78.13
10720;BME280;5411;58.386;15.560;2023-04-03T23:38:48;101972.19;;;-2.10;78.43
10720;BME280;5411;58.386;15.560;2023-04-03T23:41:17;101977.88;;;-2.18;78.77
10720;BME280;5411;58.386;15.560;2023-04-03T23:43:49;101969.38;;;-2.23;79.31
10720;BME280;5411;58.386;15.560;2023-04-03T23:46:18;101968.09;;;-2.32;79.58
10720;BME280;5411;58.386;15.560;2023-04-03T23:48:46;101954.66;;;-2.41;80.39
10720;BME280;5411;58.386;15.560;2023-04-03T23:51:15;101960.03;;;-2.44;80.08
10720;BME280;5411;58.386;15.560;2023-04-03T23:53:43;101963.75;;;-2.48;80.08
10720;BME280;5411;58.386;15.560;2023-04-03T23:56:12;101966.50;;;-2.52;80.94
10720;BME280;5411;58.386;15.560;2023-04-03T23:58:42;101962.19;;;-2.53;80.17
